sensor_id;sensor_type;location;lat;lon;timestamp;P1;durP1;ratioP1;P2;durP2;ratioP2
28007;SDS011;15333;50.010;20.020;2024-02-26T00:02:51;43.33;;;23.00;;
28007;SDS011;15333;50.010;20.020;2024-02-26T00:05:52;41.33;;;22.30;;
28007;SDS011;15333;50.010;20.020;2024-02-26T00:08:53;39.72;;;22.08;;
28007;SDS011;15333;50.010;20.020;2024-02-26T00:11:54;40.45;;;21.48;;
28007;SDS011;15333;50.010;20.020;2024-02-26T00:14:55;41.83;;;22.45;;
28007;SDS011;15333;50.010;20.020;2024-02-26T00:17:58;41.85;;;22.58;;
28007;SDS011;15333;50.010;20.020;2024-02-26T00:20:59;43.55;;;21.50;;
28007;SDS011;15333;50.010;20.020;2024-02-26T00:24:04;40.33;;;22.48;;
28007;SDS011;15333;50.010;20.020;2024-02-26T00:27:07;45.75;;;26.65;;
28007;SDS011;15333;50.010;20.020;2024-02-26T00:30:09;35.38;;;21.85;;
28007;SDS011;15333;50.010;20.020;2024-02-26T00:33:10;44.63;;;23.23;;
28007;SDS011;15333;50.010;20.020;2024-02-26T00:36:11;41.15;;;21.42;;
28007;SDS011;15333;50.010;20.020;2024-02-26T00:39:12;38.60;;;21.30;;
28007;SDS011;15333;50.010;20.020;2024-02-26T00:42:13;38.63;;;20.65;;
28007;SDS011;15333;50.010;20.020;2024-02-26T00:45:14;42.03;;;21.95;;
28007;SDS011;15333;50.010;20.020;2024-02-26T00:48:16;38.95;;;21.73;;
28007;SDS011;15333;50.010;20.020;2024-02-26T00:51:17;35.78;;;21.85;;
28007;SDS011;15333;50.010;20.020;2024-02-26T00:54:18;39.17;;;21.55;;
28007;SDS011;15333;50.010;20.020;2024-02-26T00:57:19;46.83;;;23.63;;
28007;SDS011;15333;50.010;20.020;2024-02-26T01:00:22;42.30;;;23.30;;
28007;SDS011;15333;50.010;20.020;2024-02-26T01:03:23;42.58;;;23.75;;
28007;SDS011;15333;50.010;20.020;2024-02-26T01:06:24;40.80;;;24.30;;
28007;SDS011;15333;50.010;20.020;2024-02-26T01:09:25;60.58;;;33.05;;
28007;SDS011;15333;50.010;20.020;2024-02-26T01:12:26;48.72;;;27.33;;
28007;SDS011;15333;50.010;20.020;2024-02-26T01:15:27;44.08;;;25.92;;
28007;SDS011;15333;50.010;20.020;2024-02-26T01:18:28;43.60;;;23.85;;
28007;SDS011;15333;50.010;20.020;2024-02-26T01:21:29;38.47;;;24.27;;
28007;SDS011;15333;50.010;20.020;2024-02-26T01:24:30;46.08;;;25.38;;
28007;SDS011;15333;50.010;20.020;2024-02-26T01:27:31;46.95;;;27.55;;
28007;SDS011;15333;50.010;20.020;2024-02-26T01:30:32;53.35;;;29.58;;
28007;SDS011;15333;50.010;20.020;2024-02-26T01:33:33;60.65;;;31.35;;
28007;SDS011;15333;50.010;20.020;2024-02-26T01:36:34;52.15;;;29.92;;
28007;SDS011;15333;50.010;20.020;2024-02-26T01:39:36;51.80;;;30.83;;
28007;SDS011;15333;50.010;20.020;2024-02-26T01:42:38;52.78;;;30.63;;
28007;SDS011;15333;50.010;20.020;2024-02-26T01:45:39;51.67;;;27.35;;
28007;SDS011;15333;50.010;20.020;2024-02-26T01:48:40;55.15;;;29.05;;
28007;SDS011;15333;50.010;20.020;2024-02-26T01:51:42;49.00;;;28.75;;
28007;SDS011;15333;50.010;20.020;2024-02-26T01:54:44;38.72;;;23.02;;
28007;SDS011;15333;50.010;20.020;2024-02-26T01:57:47;47.78;;;25.25;;
28007;SDS011;15333;50.010;20.020;2024-02-26T02:00:50;42.40;;;23.40;;
28007;SDS011;15333;50.010;20.020;2024-02-26T02:03:50;41.97;;;24.15;;
28007;SDS011;15333;50.010;20.020;2024-02-26T02:06:52;50.85;;;26.40;;
28007;SDS011;15333;50.010;20.020;2024-02-26T02:09:53;56.22;;;27.67;;
28007;SDS011;15333;50.010;20.020;2024-02-26T02:12:54;52.72;;;27.67;;
28007;SDS011;15333;50.010;20.020;2024-02-26T02:15:55;51.50;;;29.13;;
28007;SDS011;15333;50.010;20.020;2024-02-26T02:18:57;49.88;;;26.88;;
28007;SDS011;15333;50.010;20.020;2024-02-26T02:21:59;52.72;;;25.83;;
28007;SDS011;15333;50.010;20.020;2024-02-26T02:25:00;45.75;;;25.58;;
28007;SDS011;15333;50.010;20.020;2024-02-26T02:28:01;44.35;;;24.38;;
28007;SDS011;15333;50.010;20.020;2024-02-26T02:31:02;47.38;;;26.75;;
28007;SDS011;15333;50.010;20.020;2024-02-26T02:34:04;50.80;;;27.92;;
28007;SDS011;15333;50.010;20.020;2024-02-26T02:37:05;46.13;;;26.67;;
28007;SDS011;15333;50.010;20.020;2024-02-26T02:40:06;48.28;;;27.63;;
28007;SDS011;15333;50.010;20.020;2024-02-26T02:43:08;40.65;;;25.25;;
28007;SDS011;15333;50.010;20.020;2024-02-26T02:46:09;48.13;;;29.30;;
28007;SDS011;15333;50.010;20.020;2024-02-26T02:49:12;43.70;;;25.83;;
28007;SDS011;15333;50.010;20.020;2024-02-26T02:52:13;44.97;;;25.42;;
28007;SDS011;15333;50.010;20.020;2024-02-26T02:55:14;51.38;;;26.98;;
28007;SDS011;15333;50.010;20.020;2024-02-26T02:58:15;44.15;;;26.30;;
28007;SDS011;15333;50.010;20.020;2024-02-26T03:01:16;48.08;;;26.77;;
28007;SDS011;15333;50.010;20.020;2024-02-26T03:04:17;41.78;;;26.40;;
28007;SDS011;15333;50.010;20.020;2024-02-26T03:07:18;40.75;;;23.55;;
28007;SDS011;15333;50.010;20.020;2024-02-26T03:10:19;47.47;;;27.05;;
28007;SDS011;15333;50.010;20.020;2024-02-26T03:13:20;43.20;;;25.65;;
28007;SDS011;15333;50.010;20.020;2024-02-26T03:16:21;43.60;;;26.60;;
28007;SDS011;15333;50.010;20.020;2024-02-26T03:19:22;43.28;;;25.75;;
28007;SDS011;15333;50.010;20.020;2024-02-26T03:22:23;46.53;;;26.90;;
28007;SDS011;15333;50.010;20.020;2024-02-26T03:25:25;44.65;;;26.17;;
28007;SDS011;15333;50.010;20.020;2024-02-26T03:28:25;42.78;;;24.05;;
28007;SDS011;15333;50.010;20.020;2024-02-26T03:31:26;39.78;;;24.75;;
28007;SDS011;15333;50.010;20.020;2024-02-26T03:34:28;42.15;;;25.90;;
28007;SDS011;15333;50.010;20.020;2024-02-26T03:37:29;44.15;;;28.23;;
28007;SDS011;15333;50.010;20.020;2024-02-26T03:40:30;53.08;;;30.67;;
28007;SDS011;15333;50.010;20.020;2024-02-26T03:43:31;45.90;;;27.75;;
28007;SDS011;15333;50.010;20.020;2024-02-26T03:46:32;45.80;;;27.25;;
28007;SDS011;15333;50.010;20.020;2024-02-26T03:49:33;48.22;;;30.08;;
28007;SDS011;15333;50.010;20.020;2024-02-26T03:52:34;53.13;;;29.08;;
28007;SDS011;15333;50.010;20.020;2024-02-26T03:55:35;49.53;;;29.63;;
28007;SDS011;15333;50.010;20.020;2024-02-26T03:58:36;50.03;;;29.77;;
28007;SDS011;15333;50.010;20.020;2024-02-26T04:01:37;47.33;;;27.15;;
28007;SDS011;15333;50.010;20.020;2024-02-26T04:04:38;52.90;;;30.40;;
28007;SDS011;15333;50.010;20.020;2024-02-26T04:07:39;47.45;;;29.75;;
28007;SDS011;15333;50.010;20.020;2024-02-26T04:10:40;49.45;;;30.58;;
28007;SDS011;15333;50.010;20.020;2024-02-26T04:13:41;49.28;;;28.88;;
28007;SDS011;15333;50.010;20.020;2024-02-26T04:16:42;49.30;;;28.75;;
28007;SDS011;15333;50.010;20.020;2024-02-26T04:19:43;50.55;;;30.45;;
28007;SDS011;15333;50.010;20.020;2024-02-26T04:22:44;50.08;;;28.80;;
28007;SDS011;15333;50.010;20.020;2024-02-26T04:25:45;47.88;;;27.67;;
28007;SDS011;15333;50.010;20.020;2024-02-26T04:28:46;54.78;;;31.80;;
28007;SDS011;15333;50.010;20.020;2024-02-26T04:31:47;55.70;;;34.08;;
28007;SDS011;15333;50.010;20.020;2024-02-26T04:34:48;73.30;;;42.75;;
28007;SDS011;15333;50.010;20.020;2024-02-26T04:37:49;65.93;;;37.20;;
28007;SDS011;15333;50.010;20.020;2024-02-26T04:40:50;60.10;;;34.83;;
28007;SDS011;15333;50.010;20.020;2024-02-26T04:43:51;52.95;;;32.30;;
28007;SDS011;15333;50.010;20.020;2024-02-26T04:46:52;51.42;;;30.85;;
28007;SDS011;15333;50.010;20.020;2024-02-26T04:49:53;57.08;;;35.75;;
28007;SDS011;15333;50.010;20.020;2024-02-26T04:52:54;58.60;;;32.80;;
28007;SDS011;15333;50.010;20.020;2024-02-26T04:55:55;56.70;;;31.65;;
28007;SDS011;15333;50.010;20.020;2024-02-26T04:58:55;62.10;;;33.58;;
28007;SDS011;15333;50.010;20.020;2024-02-26T05:01:56;61.20;;;36.20;;
28007;SDS011;15333;50.010;20.020;2024-02-26T05:04:57;73.22;;;42.25;;
28007;SDS011;15333;50.010;20.020;2024-02-26T05:07:59;62.53;;;35.67;;
28007;SDS011;15333;50.010;20.020;2024-02-26T05:10:59;52.60;;;32.88;;
28007;SDS011;15333;50.010;20.020;2024-02-26T05:14:01;60.22;;;35.72;;
28007;SDS011;15333;50.010;20.020;2024-02-26T05:17:03;56.78;;;35.17;;
28007;SDS011;15333;50.010;20.020;2024-02-26T05:20:04;60.30;;;35.50;;
28007;SDS011;15333;50.010;20.020;2024-02-26T05:23:08;58.78;;;35.63;;
28007;SDS011;15333;50.010;20.020;2024-02-26T05:26:10;68.47;;;39.90;;
28007;SDS011;15333;50.010;20.020;2024-02-26T05:29:11;69.90;;;39.72;;
28007;SDS011;15333;50.010;20.020;2024-02-26T05:32:12;70.38;;;38.67;;
28007;SDS011;15333;50.010;20.020;2024-02-26T05:35:13;75.20;;;40.92;;
28007;SDS011;15333;50.010;20.020;2024-02-26T05:38:14;70.50;;;41.17;;
28007;SDS011;15333;50.010;20.020;2024-02-26T05:41:17;71.60;;;37.67;;
28007;SDS011;15333;50.010;20.020;2024-02-26T05:44:27;64.85;;;39.50;;
28007;SDS011;15333;50.010;20.020;2024-02-26T05:47:28;74.90;;;42.42;;
28007;SDS011;15333;50.010;20.020;2024-02-26T05:50:29;69.60;;;40.60;;
28007;SDS011;15333;50.010;20.020;2024-02-26T05:53:29;71.35;;;41.42;;
28007;SDS011;15333;50.010;20.020;2024-02-26T05:56:30;81.38;;;45.13;;
28007;SDS011;15333;50.010;20.020;2024-02-26T05:59:31;73.18;;;42.33;;
28007;SDS011;15333;50.010;20.020;2024-02-26T06:02:33;73.63;;;42.55;;
28007;SDS011;15333;50.010;20.020;2024-02-26T06:05:33;78.32;;;44.85;;
28007;SDS011;15333;50.010;20.020;2024-02-26T06:08:34;70.38;;;39.15;;
28007;SDS011;15333;50.010;20.020;2024-02-26T06:11:35;67.00;;;42.60;;
28007;SDS011;15333;50.010;20.020;2024-02-26T06:14:36;70.03;;;42.30;;
28007;SDS011;15333;50.010;20.020;2024-02-26T06:17:37;71.97;;;42.28;;
28007;SDS011;15333;50.010;20.020;2024-02-26T06:20:38;71.25;;;42.88;;
28007;SDS011;15333;50.010;20.020;2024-02-26T06:23:39;68.97;;;39.00;;
28007;SDS011;15333;50.010;20.020;2024-02-26T06:26:43;56.78;;;36.67;;
28007;SDS011;15333;50.010;20.020;2024-02-26T06:29:44;57.55;;;35.78;;
28007;SDS011;15333;50.010;20.020;2024-02-26T06:32:45;60.67;;;35.85;;
28007;SDS011;15333;50.010;20.020;2024-02-26T06:35:45;53.85;;;35.13;;
28007;SDS011;15333;50.010;20.020;2024-02-26T06:38:47;55.83;;;36.35;;
28007;SDS011;15333;50.010;20.020;2024-02-26T06:41:47;57.88;;;36.33;;
28007;SDS011;15333;50.010;20.020;2024-02-26T06:44:49;63.55;;;35.65;;
28007;SDS011;15333;50.010;20.020;2024-02-26T06:47:50;58.20;;;35.88;;
28007;SDS011;15333;50.010;20.020;2024-02-26T06:50:51;57.88;;;34.65;;
28007;SDS011;15333;50.010;20.020;2024-02-26T06:53:51;60.03;;;34.45;;
28007;SDS011;15333;50.010;20.020;2024-02-26T06:56:52;64.07;;;35.63;;
28007;SDS011;15333;50.010;20.020;2024-02-26T06:59:53;60.05;;;34.45;;
28007;SDS011;15333;50.010;20.020;2024-02-26T07:02:54;54.15;;;32.13;;
28007;SDS011;15333;50.010;20.020;2024-02-26T07:05:55;61.10;;;32.38;;
28007;SDS011;15333;50.010;20.020;2024-02-26T07:08:57;60.80;;;32.58;;
28007;SDS011;15333;50.010;20.020;2024-02-26T07:11:58;54.60;;;30.48;;
28007;SDS011;15333;50.010;20.020;2024-02-26T07:14:59;56.13;;;30.15;;
28007;SDS011;15333;50.010;20.020;2024-02-26T07:18:01;51.90;;;29.10;;
28007;SDS011;15333;50.010;20.020;2024-02-26T07:21:05;53.70;;;29.90;;
28007;SDS011;15333;50.010;20.020;2024-02-26T07:24:06;53.38;;;29.27;;
28007;SDS011;15333;50.010;20.020;2024-02-26T07:27:07;52.58;;;29.42;;
28007;SDS011;15333;50.010;20.020;2024-02-26T07:30:08;51.88;;;29.90;;
28007;SDS011;15333;50.010;20.020;2024-02-26T07:33:10;47.28;;;28.25;;
28007;SDS011;15333;50.010;20.020;2024-02-26T07:36:11;56.53;;;29.92;;
28007;SDS011;15333;50.010;20.020;2024-02-26T07:39:12;48.47;;;29.00;;
28007;SDS011;15333;50.010;20.020;2024-02-26T07:42:13;50.47;;;27.70;;
28007;SDS011;15333;50.010;20.020;2024-02-26T07:45:14;45.95;;;27.23;;
28007;SDS011;15333;50.010;20.020;2024-02-26T07:48:16;48.33;;;27.63;;
28007;SDS011;15333;50.010;20.020;2024-02-26T07:51:17;40.53;;;25.88;;
28007;SDS011;15333;50.010;20.020;2024-02-26T07:54:18;39.10;;;24.08;;
28007;SDS011;15333;50.010;20.020;2024-02-26T07:57:20;47.10;;;23.23;;
28007;SDS011;15333;50.010;20.020;2024-02-26T08:00:21;46.17;;;25.80;;
28007;SDS011;15333;50.010;20.020;2024-02-26T08:03:22;38.38;;;23.35;;
28007;SDS011;15333;50.010;20.020;2024-02-26T08:06:23;41.38;;;23.92;;
28007;SDS011;15333;50.010;20.020;2024-02-26T08:09:25;34.35;;;21.73;;
28007;SDS011;15333;50.010;20.020;2024-02-26T08:12:26;34.83;;;20.08;;
28007;SDS011;15333;50.010;20.020;2024-02-26T08:15:27;33.60;;;19.80;;
28007;SDS011;15333;50.010;20.020;2024-02-26T08:18:28;29.58;;;17.55;;
28007;SDS011;15333;50.010;20.020;2024-02-26T08:21:29;32.25;;;19.80;;
28007;SDS011;15333;50.010;20.020;2024-02-26T08:24:30;31.77;;;18.70;;
28007;SDS011;15333;50.010;20.020;2024-02-26T08:27:31;31.98;;;17.88;;
28007;SDS011;15333;50.010;20.020;2024-02-26T08:30:31;28.50;;;16.38;;
28007;SDS011;15333;50.010;20.020;2024-02-26T08:33:33;27.30;;;16.65;;
28007;SDS011;15333;50.010;20.020;2024-02-26T08:36:35;24.77;;;15.20;;
28007;SDS011;15333;50.010;20.020;2024-02-26T08:39:36;23.40;;;14.60;;
28007;SDS011;15333;50.010;20.020;2024-02-26T08:42:37;23.55;;;15.65;;
28007;SDS011;15333;50.010;20.020;2024-02-26T08:45:38;26.90;;;16.42;;
28007;SDS011;15333;50.010;20.020;2024-02-26T08:48:38;29.55;;;17.05;;
28007;SDS011;15333;50.010;20.020;2024-02-26T08:51:43;27.55;;;16.02;;
28007;SDS011;15333;50.010;20.020;2024-02-26T08:54:44;30.67;;;17.52;;
28007;SDS011;15333;50.010;20.020;2024-02-26T08:57:45;36.72;;;18.88;;
28007;SDS011;15333;50.010;20.020;2024-02-26T09:00:47;38.40;;;19.42;;
28007;SDS011;15333;50.010;20.020;2024-02-26T09:03:48;37.95;;;17.88;;
28007;SDS011;15333;50.010;20.020;2024-02-26T09:06:50;34.22;;;17.95;;
28007;SDS011;15333;50.010;20.020;2024-02-26T09:09:51;33.13;;;21.00;;
28007;SDS011;15333;50.010;20.020;2024-02-26T09:12:52;28.02;;;17.95;;
28007;SDS011;15333;50.010;20.020;2024-02-26T09:15:53;31.13;;;17.98;;
28007;SDS011;15333;50.010;20.020;2024-02-26T09:18:55;29.92;;;16.27;;
28007;SDS011;15333;50.010;20.020;2024-02-26T09:21:57;26.83;;;16.27;;
28007;SDS011;15333;50.010;20.020;2024-02-26T09:24:58;29.63;;;16.73;;
28007;SDS011;15333;50.010;20.020;2024-02-26T09:27:59;29.70;;;15.65;;
28007;SDS011;15333;50.010;20.020;2024-02-26T09:31:00;24.67;;;15.55;;
28007;SDS011;15333;50.010;20.020;2024-02-26T09:34:01;27.05;;;14.35;;
28007;SDS011;15333;50.010;20.020;2024-02-26T09:37:02;27.77;;;14.52;;
28007;SDS011;15333;50.010;20.020;2024-02-26T09:40:03;25.35;;;13.85;;
28007;SDS011;15333;50.010;20.020;2024-02-26T09:43:06;21.75;;;13.07;;
28007;SDS011;15333;50.010;20.020;2024-02-26T09:46:15;21.58;;;12.13;;
28007;SDS011;15333;50.010;20.020;2024-02-26T09:49:21;22.35;;;12.10;;
28007;SDS011;15333;50.010;20.020;2024-02-26T09:52:25;18.35;;;10.52;;
28007;SDS011;15333;50.010;20.020;2024-02-26T09:55:27;15.27;;;9.50;;
28007;SDS011;15333;50.010;20.020;2024-02-26T09:58:28;17.73;;;10.07;;
28007;SDS011;15333;50.010;20.020;2024-02-26T10:01:30;15.30;;;9.27;;
28007;SDS011;15333;50.010;20.020;2024-02-26T10:04:34;15.23;;;8.55;;
28007;SDS011;15333;50.010;20.020;2024-02-26T10:07:35;14.60;;;7.70;;
28007;SDS011;15333;50.010;20.020;2024-02-26T10:10:36;13.57;;;7.63;;
28007;SDS011;15333;50.010;20.020;2024-02-26T10:13:38;10.77;;;6.53;;
28007;SDS011;15333;50.010;20.020;2024-02-26T10:16:40;14.65;;;5.70;;
28007;SDS011;15333;50.010;20.020;2024-02-26T10:19:41;11.00;;;5.70;;
28007;SDS011;15333;50.010;20.020;2024-02-26T10:22:42;11.10;;;6.10;;
28007;SDS011;15333;50.010;20.020;2024-02-26T10:25:52;10.45;;;6.15;;
28007;SDS011;15333;50.010;20.020;2024-02-26T10:28:59;8.65;;;5.20;;
28007;SDS011;15333;50.010;20.020;2024-02-26T10:32:01;9.93;;;5.13;;
28007;SDS011;15333;50.010;20.020;2024-02-26T10:35:05;7.18;;;4.75;;
28007;SDS011;15333;50.010;20.020;2024-02-26T10:38:09;6.13;;;3.80;;
28007;SDS011;15333;50.010;20.020;2024-02-26T10:41:13;5.13;;;3.17;;
28007;SDS011;15333;50.010;20.020;2024-02-26T10:44:15;4.15;;;3.35;;
28007;SDS011;15333;50.010;20.020;2024-02-26T10:47:16;4.40;;;3.17;;
28007;SDS011;15333;50.010;20.020;2024-02-26T10:50:17;6.85;;;3.97;;
28007;SDS011;15333;50.010;20.020;2024-02-26T10:53:20;6.80;;;3.22;;
28007;SDS011;15333;50.010;20.020;2024-02-26T10:56:23;6.10;;;3.42;;
28007;SDS011;15333;50.010;20.020;2024-02-26T10:59:26;4.93;;;3.17;;
28007;SDS011;15333;50.010;20.020;2024-02-26T11:02:27;4.70;;;3.33;;
28007;SDS011;15333;50.010;20.020;2024-02-26T11:05:28;4.07;;;3.00;;
28007;SDS011;15333;50.010;20.020;2024-02-26T11:08:30;5.97;;;3.70;;
28007;SDS011;15333;50.010;20.020;2024-02-26T11:11:33;6.28;;;3.20;;
28007;SDS011;15333;50.010;20.020;2024-02-26T11:14:37;5.45;;;3.63;;
28007;SDS011;15333;50.010;20.020;2024-02-26T11:17:40;11.00;;;3.50;;
28007;SDS011;15333;50.010;20.020;2024-02-26T11:20:43;5.63;;;3.28;;
28007;SDS011;15333;50.010;20.020;2024-02-26T11:23:46;7.10;;;3.58;;
28007;SDS011;15333;50.010;20.020;2024-02-26T11:26:51;9.10;;;3.75;;
28007;SDS011;15333;50.010;20.020;2024-02-26T11:30:00;7.18;;;3.50;;
28007;SDS011;15333;50.010;20.020;2024-02-26T11:33:03;7.50;;;3.92;;
28007;SDS011;15333;50.010;20.020;2024-02-26T11:36:08;8.75;;;3.72;;
28007;SDS011;15333;50.010;20.020;2024-02-26T11:39:10;8.23;;;3.65;;
28007;SDS011;15333;50.010;20.020;2024-02-26T11:42:17;6.70;;;3.40;;
28007;SDS011;15333;50.010;20.020;2024-02-26T11:45:47;5.72;;;3.33;;
28007;SDS011;15333;50.010;20.020;2024-02-26T11:48:50;5.30;;;2.97;;
28007;SDS011;15333;50.010;20.020;2024-02-26T11:51:51;6.88;;;3.20;;
28007;SDS011;15333;50.010;20.020;2024-02-26T11:54:56;4.70;;;3.08;;
28007;SDS011;15333;50.010;20.020;2024-02-26T11:57:57;7.43;;;3.17;;
28007;SDS011;15333;50.010;20.020;2024-02-26T12:00:58;6.47;;;3.30;;
28007;SDS011;15333;50.010;20.020;2024-02-26T12:03:59;5.38;;;3.60;;
28007;SDS011;15333;50.010;20.020;2024-02-26T12:07:02;6.60;;;3.55;;
28007;SDS011;15333;50.010;20.020;2024-02-26T12:10:14;5.20;;;2.92;;
28007;SDS011;15333;50.010;20.020;2024-02-26T12:13:21;6.38;;;3.70;;
28007;SDS011;15333;50.010;20.020;2024-02-26T12:16:36;5.93;;;3.50;;
28007;SDS011;15333;50.010;20.020;2024-02-26T12:19:38;4.07;;;3.33;;
28007;SDS011;15333;50.010;20.020;2024-02-26T12:22:39;6.93;;;3.17;;
28007;SDS011;15333;50.010;20.020;2024-02-26T12:25:41;3.85;;;3.25;;
28007;SDS011;15333;50.010;20.020;2024-02-26T12:28:44;4.22;;;3.20;;
28007;SDS011;15333;50.010;20.020;2024-02-26T12:31:47;6.57;;;3.75;;
28007;SDS011;15333;50.010;20.020;2024-02-26T12:34:48;3.40;;;3.03;;
28007;SDS011;15333;50.010;20.020;2024-02-26T12:37:50;5.72;;;3.47;;
28007;SDS011;15333;50.010;20.020;2024-02-26T12:40:53;5.53;;;3.10;;
28007;SDS011;15333;50.010;20.020;2024-02-26T12:43:55;4.35;;;3.42;;
28007;SDS011;15333;50.010;20.020;2024-02-26T12:47:03;3.88;;;3.30;;
28007;SDS011;15333;50.010;20.020;2024-02-26T12:50:05;6.45;;;3.67;;
28007;SDS011;15333;50.010;20.020;2024-02-26T12:53:08;5.25;;;3.60;;
28007;SDS011;15333;50.010;20.020;2024-02-26T12:56:09;5.00;;;4.10;;
28007;SDS011;15333;50.010;20.020;2024-02-26T12:59:11;5.57;;;4.20;;
28007;SDS011;15333;50.010;20.020;2024-02-26T13:02:12;6.55;;;3.90;;
28007;SDS011;15333;50.010;20.020;2024-02-26T13:05:13;6.82;;;4.60;;
28007;SDS011;15333;50.010;20.020;2024-02-26T13:08:21;5.40;;;4.30;;
28007;SDS011;15333;50.010;20.020;2024-02-26T13:11:22;7.55;;;4.63;;
28007;SDS011;15333;50.010;20.020;2024-02-26T13:14:23;10.95;;;6.32;;
28007;SDS011;15333;50.010;20.020;2024-02-26T13:17:24;12.20;;;6.57;;
28007;SDS011;15333;50.010;20.020;2024-02-26T13:20:28;7.63;;;6.47;;
28007;SDS011;15333;50.010;20.020;2024-02-26T13:23:30;8.93;;;6.13;;
28007;SDS011;15333;50.010;20.020;2024-02-26T13:26:31;10.88;;;7.72;;
28007;SDS011;15333;50.010;20.020;2024-02-26T13:29:32;8.55;;;7.03;;
28007;SDS011;15333;50.010;20.020;2024-02-26T13:32:34;8.50;;;7.28;;
28007;SDS011;15333;50.010;20.020;2024-02-26T13:35:36;8.10;;;7.00;;
28007;SDS011;15333;50.010;20.020;2024-02-26T13:38:39;9.60;;;7.78;;
28007;SDS011;15333;50.010;20.020;2024-02-26T13:41:40;9.55;;;7.35;;
28007;SDS011;15333;50.010;20.020;2024-02-26T13:44:43;10.60;;;7.60;;
28007;SDS011;15333;50.010;20.020;2024-02-26T13:47:44;8.98;;;7.25;;
28007;SDS011;15333;50.010;20.020;2024-02-26T13:50:45;8.73;;;7.20;;
28007;SDS011;15333;50.010;20.020;2024-02-26T13:53:46;9.05;;;8.05;;
28007;SDS011;15333;50.010;20.020;2024-02-26T13:56:47;10.05;;;8.32;;
28007;SDS011;15333;50.010;20.020;2024-02-26T13:59:48;15.05;;;9.10;;
28007;SDS011;15333;50.010;20.020;2024-02-26T14:02:50;10.35;;;8.35;;
28007;SDS011;15333;50.010;20.020;2024-02-26T14:05:51;14.50;;;9.35;;
28007;SDS011;15333;50.010;20.020;2024-02-26T14:08:53;12.65;;;9.88;;
28007;SDS011;15333;50.010;20.020;2024-02-26T14:11:53;16.55;;;10.15;;
28007;SDS011;15333;50.010;20.020;2024-02-26T14:14:54;15.10;;;11.32;;
28007;SDS011;15333;50.010;20.020;2024-02-26T14:17:56;12.63;;;11.02;;
28007;SDS011;15333;50.010;20.020;2024-02-26T14:20:57;14.38;;;11.10;;
28007;SDS011;15333;50.010;20.020;2024-02-26T14:23:58;15.95;;;11.13;;
28007;SDS011;15333;50.010;20.020;2024-02-26T14:26:59;14.82;;;11.32;;
28007;SDS011;15333;50.010;20.020;2024-02-26T14:30:00;16.90;;;12.68;;
28007;SDS011;15333;50.010;20.020;2024-02-26T14:33:01;15.30;;;11.73;;
28007;SDS011;15333;50.010;20.020;2024-02-26T14:36:01;15.93;;;11.70;;
28007;SDS011;15333;50.010;20.020;2024-02-26T14:39:03;15.60;;;12.55;;
28007;SDS011;15333;50.010;20.020;2024-02-26T14:42:04;16.63;;;12.80;;
28007;SDS011;15333;50.010;20.020;2024-02-26T14:45:06;21.52;;;12.90;;
28007;SDS011;15333;50.010;20.020;2024-02-26T14:48:09;17.90;;;13.38;;
28007;SDS011;15333;50.010;20.020;2024-02-26T14:51:12;17.45;;;14.05;;
28007;SDS011;15333;50.010;20.020;2024-02-26T14:54:13;17.58;;;13.82;;
28007;SDS011;15333;50.010;20.020;2024-02-26T14:57:15;21.95;;;14.27;;
28007;SDS011;15333;50.010;20.020;2024-02-26T15:00:15;18.83;;;13.55;;
28007;SDS011;15333;50.010;20.020;2024-02-26T15:03:17;20.63;;;14.88;;
28007;SDS011;15333;50.010;20.020;2024-02-26T15:06:17;20.25;;;14.10;;
28007;SDS011;15333;50.010;20.020;2024-02-26T15:09:19;24.17;;;15.13;;
28007;SDS011;15333;50.010;20.020;2024-02-26T15:12:19;21.23;;;15.18;;
28007;SDS011;15333;50.010;20.020;2024-02-26T15:15:21;20.92;;;15.38;;
28007;SDS011;15333;50.010;20.020;2024-02-26T15:18:22;21.73;;;15.32;;
28007;SDS011;15333;50.010;20.020;2024-02-26T15:21:23;24.00;;;15.90;;
28007;SDS011;15333;50.010;20.020;2024-02-26T15:24:24;24.38;;;15.52;;
28007;SDS011;15333;50.010;20.020;2024-02-26T15:27:25;23.42;;;16.67;;
28007;SDS011;15333;50.010;20.020;2024-02-26T15:30:26;21.40;;;16.50;;
28007;SDS011;15333;50.010;20.020;2024-02-26T15:33:30;26.08;;;16.92;;
28007;SDS011;15333;50.010;20.020;2024-02-26T15:36:31;22.77;;;16.50;;
28007;SDS011;15333;50.010;20.020;2024-02-26T15:39:32;23.20;;;16.35;;
28007;SDS011;15333;50.010;20.020;2024-02-26T15:42:34;26.25;;;17.30;;
28007;SDS011;15333;50.010;20.020;2024-02-26T15:45:35;24.75;;;17.77;;
28007;SDS011;15333;50.010;20.020;2024-02-26T15:48:36;26.55;;;16.88;;
28007;SDS011;15333;50.010;20.020;2024-02-26T15:51:38;26.50;;;17.98;;
28007;SDS011;15333;50.010;20.020;2024-02-26T15:54:39;35.22;;;18.80;;
28007;SDS011;15333;50.010;20.020;2024-02-26T15:57:41;27.80;;;18.35;;
28007;SDS011;15333;50.010;20.020;2024-02-26T16:00:42;29.58;;;18.88;;
28007;SDS011;15333;50.010;20.020;2024-02-26T16:03:43;27.83;;;18.65;;
28007;SDS011;15333;50.010;20.020;2024-02-26T16:06:45;31.20;;;20.58;;
28007;SDS011;15333;50.010;20.020;2024-02-26T16:09:50;32.55;;;21.10;;
28007;SDS011;15333;50.010;20.020;2024-02-26T16:12:53;39.63;;;22.63;;
28007;SDS011;15333;50.010;20.020;2024-02-26T16:16:03;33.53;;;22.85;;
28007;SDS011;15333;50.010;20.020;2024-02-26T16:19:08;37.95;;;23.95;;
28007;SDS011;15333;50.010;20.020;2024-02-26T16:22:12;41.25;;;25.27;;
28007;SDS011;15333;50.010;20.020;2024-02-26T16:25:14;33.88;;;24.10;;
28007;SDS011;15333;50.010;20.020;2024-02-26T16:28:16;44.42;;;26.02;;
28007;SDS011;15333;50.010;20.020;2024-02-26T16:31:17;36.45;;;24.55;;
28007;SDS011;15333;50.010;20.020;2024-02-26T16:34:18;37.55;;;25.05;;
28007;SDS011;15333;50.010;20.020;2024-02-26T16:37:19;41.00;;;25.08;;
28007;SDS011;15333;50.010;20.020;2024-02-26T16:40:20;37.72;;;24.85;;
28007;SDS011;15333;50.010;20.020;2024-02-26T16:43:22;39.78;;;25.10;;
28007;SDS011;15333;50.010;20.020;2024-02-26T16:46:23;38.10;;;26.73;;
28007;SDS011;15333;50.010;20.020;2024-02-26T16:49:24;39.45;;;26.98;;
28007;SDS011;15333;50.010;20.020;2024-02-26T16:52:25;38.35;;;25.40;;
28007;SDS011;15333;50.010;20.020;2024-02-26T16:55:26;38.67;;;27.30;;
28007;SDS011;15333;50.010;20.020;2024-02-26T16:58:28;43.35;;;25.77;;
28007;SDS011;15333;50.010;20.020;2024-02-26T17:01:29;44.30;;;25.88;;
28007;SDS011;15333;50.010;20.020;2024-02-26T17:04:30;41.95;;;26.92;;
28007;SDS011;15333;50.010;20.020;2024-02-26T17:07:31;38.88;;;27.27;;
28007;SDS011;15333;50.010;20.020;2024-02-26T17:10:33;42.80;;;26.52;;
28007;SDS011;15333;50.010;20.020;2024-02-26T18:17:23;46.65;;;30.50;;
28007;SDS011;15333;50.010;20.020;2024-02-26T18:20:24;48.95;;;30.42;;
28007;SDS011;15333;50.010;20.020;2024-02-26T18:23:25;45.70;;;29.60;;
28007;SDS011;15333;50.010;20.020;2024-02-26T18:26:26;49.13;;;28.23;;
28007;SDS011;15333;50.010;20.020;2024-02-26T18:29:27;45.88;;;29.10;;
28007;SDS011;15333;50.010;20.020;2024-02-26T18:32:28;47.80;;;30.70;;
28007;SDS011;15333;50.010;20.020;2024-02-26T18:35:29;46.20;;;30.40;;
28007;SDS011;15333;50.010;20.020;2024-02-26T18:38:30;48.85;;;31.00;;